Delray Beach, FL

7:14 PM EDT on July 23, 2016 (GMT -0400)
Forest Park | | Change Station

Elev 15 ft 26.52 °N, 80.07 °W | Updated 38 seconds ago

Mostly Cloudy
Mostly Cloudy
86.4 °F
Feels Like 97 °F
N
2.3
Wind Variable Wind from ESE
Gusts 2.3 mph

Today
High -- | Low -- °F
--% Chance of Precip.
Yesterday
High -- | Low -- °F
Precip. -- in
Pressure 30.00 in
Visibility 10.0 miles
Clouds Few 2800 ft
Scattered Clouds 6500 ft
Mostly Cloudy 19000 ft
Heat Index 97 °F
Dew Point 77 °F
Humidity 73%
Rainfall 0.03 in
Snow Depth Not available.
6:41 AM 8:12 PM
Waning Gibbous, 82% visible
METAR KPMP 232253Z 11006KT 10SM FEW028 SCT065 BKN190 29/23 A3000 RMK AO2 LTG DSNT SW SLP158 T02890233
Pressure 30.00 in
Visibility 10.0 miles
Clouds Few 2800 ft
Scattered Clouds 6500 ft
Mostly Cloudy 19000 ft
Heat Index 97 °F
Dew Point 77 °F
Humidity 73%
Rainfall 0.03 in
Snow Depth Not available.
6:41 AM 8:12 PM
Waning Gibbous, 82% visible
METAR KPMP 232253Z 11006KT 10SM FEW028 SCT065 BKN190 29/23 A3000 RMK AO2 LTG DSNT SW SLP158 T02890233

10-Day Weather Forecast

Almanac

Astronomy

Jul. 23, 2016 Rise Set
Actual Time
Civil Twilight
Nautical Twilight
Astronomical Twilight
Moon
Length of Visible Light
Length of Day
Tomorrow will be .
, % of the Moon is Illuminated

Today's Extremes

State Highs State Lows

Community

WunderPhotos

Upload Photos

1,926,970 photos uploaded!

WunderBlog® & News

Nearby

Air Quality

  Air Quality AQ Index Pollutant
Not available.

Snow Depth

Station Depth Elevation

Earthquake Activity

City Distance Mag. Time & Date
Minimum magnitude displayed is 2.5.

Coastal Water Temperatures

Place Temperature

Stations

Nearby Weather Stations

Station Location Temp. Windchill Dew Point Humidity Wind Precip. Elev Updated Type
                   

Watches & Warnings

There are currently no watches in effect.